Time;durP1;ratioP1;P1;durP2;ratioP2;P2;SDS_P1;SDS_P2;PMS_P1;PMS_P2;Temp;Humidity;BMP_temperature;BMP_pressure;BME280_temperature;BME280_humidity;BME280_pressure;Samples;Min_cycle;Max_cycle;Signal;HPM_P1;HPM_P2
2023/02/15 00:01:47;;;;;;;12.93;9.27;;;-1.10;99.90;-1.60;102019.00;;;;4916374;28;87312;-67
2023/02/15 00:04:19;;;;;;;19.20;11.20;;;-1.10;99.90;-1.60;102020.00;;;;4911576;28;88848;-67
2023/02/15 00:06:45;;;;;;;23.47;12.20;;;-1.20;99.90;-1.60;102017.00;;;;4909718;28;88776;-66
2023/02/15 00:09:11;;;;;;;17.90;11.77;;;-1.10;99.90;-1.60;102018.00;;;;4908333;28;113070;-67
2023/02/15 00:11:49;;;;;;;17.63;11.20;;;-1.10;99.90;-1.60;102015.00;;;;4910171;28;87863;-67
2023/02/15 00:14:23;;;;;;;24.00;11.60;;;-1.30;99.90;-1.70;102020.00;;;;4910295;28;87818;-67
2023/02/15 00:16:51;;;;;;;16.17;10.97;;;-1.20;99.90;-1.70;102020.00;;;;4909909;28;106711;-67
2023/02/15 00:19:19;;;;;;;18.17;9.97;;;-1.20;99.90;-1.70;102026.00;;;;4907199;28;88007;-66
2023/02/15 00:21:46;;;;;;;19.63;10.13;;;-1.20;99.90;-1.70;102015.00;;;;4911528;28;87783;-66
2023/02/15 00:24:15;;;;;;;22.00;12.00;;;-1.20;99.90;-1.60;102021.00;;;;4907801;28;89180;-66
2023/02/15 00:26:42;;;;;;;20.77;11.60;;;-1.10;99.90;-1.60;102023.00;;;;4907979;28;109233;-67
2023/02/15 00:29:09;;;;;;;23.07;11.97;;;-1.20;99.90;-1.60;102010.00;;;;4915082;28;105173;-67
2023/02/15 00:31:35;;;;;;;21.70;11.10;;;-1.20;99.90;-1.60;102015.00;;;;4914500;28;93931;-66
2023/02/15 00:34:11;;;;;;;20.50;9.93;;;-1.20;99.90;-1.60;102012.00;;;;4911376;28;101454;-66
2023/02/15 00:36:37;;;;;;;17.63;10.60;;;-1.20;99.90;-1.60;102011.00;;;;4910780;28;107124;-67
2023/02/15 00:39:04;;;;;;;18.30;12.03;;;-1.20;99.90;-1.70;102005.00;;;;4912463;28;98409;-66
2023/02/15 00:41:31;;;;;;;15.57;10.70;;;-1.20;99.90;-1.70;101999.00;;;;4913644;28;87862;-67
2023/02/15 00:43:56;;;;;;;22.10;12.43;;;-1.20;99.90;-1.80;101999.00;;;;4913941;28;95179;-66
2023/02/15 00:46:22;;;;;;;16.27;9.37;;;-1.30;99.90;-1.80;102000.00;;;;4913601;28;118152;-66
2023/02/15 00:48:48;;;;;;;21.90;12.47;;;-1.40;99.90;-1.80;101993.00;;;;4910980;28;112809;-66
2023/02/15 00:51:14;;;;;;;15.87;10.53;;;-1.30;99.90;-1.90;101987.00;;;;4915042;28;86990;-66
2023/02/15 00:53:40;;;;;;;22.77;10.73;;;-1.50;99.90;-1.90;101978.00;;;;4910824;28;88709;-66
2023/02/15 00:56:05;;;;;;;23.80;12.00;;;-1.50;99.90;-1.90;101995.00;;;;4911341;28;117858;-66
2023/02/15 00:58:31;;;;;;;18.20;11.83;;;-1.50;99.90;-2.00;101979.00;;;;4912534;28;112202;-66
2023/02/15 01:01:06;;;;;;;20.70;10.97;;;-1.50;99.90;-2.00;101979.00;;;;4912891;28;88055;-67
2023/02/15 01:03:33;;;;;;;18.03;11.93;;;-1.50;99.90;-2.10;101977.00;;;;4914855;28;88202;-66
2023/02/15 01:05:58;;;;;;;21.70;11.83;;;-1.60;99.90;-2.10;101972.00;;;;4915091;28;101582;-66
2023/02/15 01:08:25;;;;;;;19.90;10.53;;;-1.60;99.90;-2.10;101971.00;;;;4910540;28;105051;-66
2023/02/15 01:10:51;;;;;;;29.17;14.43;;;-1.70;99.90;-2.20;101972.00;;;;4909982;28;87821;-66
2023/02/15 01:13:17;;;;;;;22.97;11.83;;;-1.70;99.90;-2.20;101982.00;;;;4925515;28;118457;-66
2023/02/15 01:15:44;;;;;;;18.30;11.47;;;-1.80;99.90;-2.20;101972.00;;;;4915144;28;117794;-66
2023/02/15 01:18:10;;;;;;;25.63;12.50;;;-1.70;99.90;-2.20;101974.00;;;;4913273;28;87983;-66
2023/02/15 01:20:40;;;;;;;22.80;12.50;;;-1.80;99.90;-2.30;101980.00;;;;4912217;28;103333;-66
2023/02/15 01:23:07;;;;;;;16.67;11.70;;;-1.80;99.90;-2.30;101972.00;;;;4911833;28;89371;-66
2023/02/15 01:25:35;;;;;;;29.70;12.80;;;-1.80;99.90;-2.30;101972.00;;;;4910125;28;89590;-66
2023/02/15 01:28:01;;;;;;;22.80;11.97;;;-1.90;99.90;-2.40;101973.00;;;;4912973;28;87699;-66
2023/02/15 01:30:27;;;;;;;25.37;11.50;;;-1.90;99.90;-2.40;101976.00;;;;4912314;28;88004;-67
2023/02/15 01:32:53;;;;;;;23.57;12.80;;;-1.90;99.90;-2.40;101976.00;;;;4910583;28;107711;-66
2023/02/15 01:35:18;;;;;;;22.07;11.87;;;-1.90;99.90;-2.40;101974.00;;;;4914451;28;117882;-66
2023/02/15 01:37:44;;;;;;;18.47;11.53;;;-1.90;99.90;-2.40;101965.00;;;;4913233;28;110337;-66
2023/02/15 01:40:16;;;;;;;25.10;12.13;;;-1.90;99.90;-2.40;101949.00;;;;4910220;28;108086;-66
2023/02/15 01:42:43;;;;;;;23.93;13.63;;;-1.90;99.90;-2.50;101953.00;;;;4925179;28;87804;-66
2023/02/15 01:45:35;;;;;;;24.97;12.10;;;-2.00;99.90;-2.60;101941.00;;;;4912449;28;88805;-66
2023/02/15 01:48:22;;;;;;;17.80;11.27;;;-2.00;99.90;-2.60;101946.00;;;;4905766;28;102083;-66
2023/02/15 01:50:53;;;;;;;17.83;10.63;;;-2.10;99.90;-2.60;101939.00;;;;4925282;28;87845;-66
2023/02/15 01:53:34;;;;;;;17.83;12.17;;;-2.10;99.90;-2.60;101927.00;;;;4907553;28;101967;-66
2023/02/15 01:56:05;;;;;;;18.90;11.10;;;-2.10;99.90;-2.60;101934.00;;;;4911156;28;105589;-67
2023/02/15 01:58:33;;;;;;;18.77;10.23;;;-2.20;99.90;-2.70;101923.00;;;;4909933;28;104497;-67
2023/02/15 02:01:00;;;;;;;21.43;10.80;;;-2.20;99.90;-2.70;101915.00;;;;4909409;28;94441;-66
2023/02/15 02:04:04;;;;;;;19.47;10.03;;;-2.30;99.90;-2.80;101914.00;;;;4909744;28;88625;-67
2023/02/15 02:06:31;;;;;;;23.60;10.93;;;-2.30;99.90;-2.80;101916.00;;;;4912693;28;87196;-67
2023/02/15 02:08:57;;;;;;;13.60;9.13;;;-2.30;99.90;-2.80;101915.00;;;;4912798;28;87802;-67
2023/02/15 02:11:23;;;;;;;17.97;10.30;;;-2.20;99.90;-2.80;101914.00;;;;4912590;28;106109;-67
2023/02/15 02:13:51;;;;;;;15.47;9.70;;;-2.60;99.90;-2.80;101921.00;;;;4909419;28;117289;-67
2023/02/15 02:16:44;;;;;;;16.93;10.30;;;-2.30;99.90;-2.80;101904.00;;;;4925682;28;89612;-67
2023/02/15 02:19:37;;;;;;;16.53;10.10;;;-2.40;99.90;-2.80;101917.00;;;;4913810;28;87916;-67
2023/02/15 02:22:53;;;;;;;19.43;11.90;;;-2.40;99.90;-2.80;101905.00;;;;4912255;28;87942;-67
2023/02/15 02:26:00;;;;;;;18.57;11.47;;;-2.20;99.90;-2.80;101905.00;;;;4925128;28;105467;-67
2023/02/15 02:28:53;;;;;;;18.03;11.47;;;-2.30;99.90;-2.80;101903.00;;;;4926182;28;88038;-67
2023/02/15 02:31:49;;;;;;;17.40;10.13;;;-2.30;99.90;-2.90;101899.00;;;;4926389;28;105285;-68
2023/02/15 02:34:41;;;;;;;18.73;11.93;;;-2.40;99.90;-2.90;101903.00;;;;4912764;28;87111;-68
2023/02/15 02:37:51;;;;;;;17.77;10.43;;;-2.30;99.90;-2.90;101909.00;;;;4927817;28;88139;-67
2023/02/15 02:40:49;;;;;;;17.97;10.33;;;-2.40;99.90;-3.00;101902.00;;;;4913897;28;89619;-69
2023/02/15 02:43:48;;;;;;;19.40;11.60;;;-2.40;99.90;-3.00;101901.00;;;;4896781;28;88834;-67
2023/02/15 02:46:25;;;;;;;18.33;11.37;;;-2.40;99.90;-3.00;101904.00;;;;4909339;28;93254;-68
2023/02/15 02:48:52;;;;;;;20.70;13.43;;;-2.50;99.90;-3.00;101903.00;;;;4926289;28;88392;-68
2023/02/15 02:51:21;;;;;;;17.57;10.63;;;-2.50;99.90;-3.00;101904.00;;;;4911691;28;118851;-68
2023/02/15 02:53:52;;;;;;;19.17;10.30;;;-2.50;99.90;-3.00;101914.00;;;;4910971;28;88214;-68
2023/02/15 02:56:46;;;;;;;19.93;10.73;;;-2.50;99.90;-3.10;101895.00;;;;4942306;28;87895;-68
2023/02/15 02:59:21;;;;;;;21.47;11.37;;;-2.50;99.90;-3.10;101901.00;;;;4908755;28;88267;-68
2023/02/15 03:02:00;;;;;;;18.83;10.80;;;-2.60;99.90;-3.10;101902.00;;;;4911910;28;88528;-68
2023/02/15 03:04:32;;;;;;;20.70;10.93;;;-2.50;99.90;-3.10;101899.00;;;;4913151;28;96451;-68
2023/02/15 03:07:00;;;;;;;17.20;10.50;;;-2.70;99.90;-3.10;101897.00;;;;4940541;28;88944;-68
2023/02/15 03:09:53;;;;;;;16.10;10.90;;;-2.80;99.90;-3.20;101901.00;;;;4926359;28;91482;-68
2023/02/15 03:12:28;;;;;;;16.03;9.27;;;-2.70;99.90;-3.20;101907.00;;;;4905990;28;109795;-68
2023/02/15 03:15:01;;;;;;;17.77;10.10;;;-2.80;99.90;-3.20;101904.00;;;;4907224;28;87710;-68
2023/02/15 03:17:32;;;;;;;13.93;8.40;;;-2.70;99.90;-3.20;101900.00;;;;4925138;28;88077;-68
2023/02/15 03:20:04;;;;;;;17.10;9.27;;;-2.70;99.90;-3.20;101910.00;;;;4923373;28;87915;-67
2023/02/15 03:22:37;;;;;;;17.57;10.73;;;-2.70;99.90;-3.20;101908.00;;;;4913275;28;106800;-67
2023/02/15 03:25:13;;;;;;;21.80;11.40;;;-2.70;99.90;-3.20;101914.00;;;;4943797;28;87946;-67
2023/02/15 03:27:44;;;;;;;21.90;11.47;;;-2.60;99.90;-3.20;101895.00;;;;4916049;28;103309;-67
2023/02/15 03:30:13;;;;;;;19.57;10.90;;;-2.60;99.90;-3.20;101906.00;;;;4925839;28;103906;-67
2023/02/15 03:32:39;;;;;;;18.50;12.57;;;-2.80;99.90;-3.30;101899.00;;;;4926257;28;117383;-67
2023/02/15 03:35:07;;;;;;;18.63;11.63;;;-2.80;99.90;-3.30;101894.00;;;;4925870;28;111493;-67
2023/02/15 03:37:45;;;;;;;22.33;13.07;;;-2.80;99.90;-3.40;101879.00;;;;4925977;28;89283;-67
2023/02/15 03:43:30;;;;;;;20.67;10.73;;;-2.80;99.90;-3.50;101879.00;;;;4923200;28;88666;-69
2023/02/15 03:46:08;;;;;;;17.93;11.10;;;-2.90;99.90;-3.50;101881.00;;;;4908124;28;112697;-69
2023/02/15 03:48:40;;;;;;;21.57;11.40;;;-2.90;99.90;-3.50;101883.00;;;;4943193;28;88045;-68
2023/02/15 03:53:58;;;;;;;20.93;11.63;;;-3.80;99.90;-3.60;101879.00;;;;4911122;28;87657;-67
2023/02/15 03:56:24;;;;;;;16.40;9.37;;;-3.10;99.90;-3.60;101878.00;;;;4910072;28;87744;-68
2023/02/15 04:01:59;;;;;;;17.63;10.47;;;-3.10;99.90;-3.60;101872.00;;;;4910862;28;88754;-67
2023/02/15 04:04:41;;;;;;;17.93;11.03;;;-3.00;99.90;-3.70;101872.00;;;;4907697;28;88767;-67
2023/02/15 04:07:09;;;;;;;21.77;11.60;;;-3.10;99.90;-3.70;101875.00;;;;4911284;28;101649;-68
2023/02/15 04:12:19;;;;;;;19.63;10.17;;;-3.10;99.90;-3.70;101872.00;;;;4909448;28;88181;-68
2023/02/15 04:17:29;;;;;;;18.77;9.93;;;-3.10;99.90;-3.70;101863.00;;;;4910266;28;87994;-68
2023/02/15 04:25:24;;;;;;;20.10;11.70;;;-3.20;99.90;-3.80;101857.00;;;;4909604;28;87908;-68
2023/02/15 04:27:52;;;;;;;24.20;13.40;;;-3.20;99.90;-3.80;101844.00;;;;4908980;28;89059;-68
2023/02/15 04:30:22;;;;;;;15.23;9.37;;;-3.20;99.90;-3.80;101853.00;;;;4910783;28;89240;-68
2023/02/15 04:32:48;;;;;;;20.47;12.47;;;-3.30;99.90;-3.80;101856.00;;;;4927334;28;87924;-67
2023/02/15 04:35:14;;;;;;;19.60;11.03;;;-3.30;99.90;-3.80;101857.00;;;;4908312;28;88667;-67
2023/02/15 04:37:42;;;;;;;23.13;12.47;;;-3.30;99.90;-3.80;101855.00;;;;4910229;28;87753;-67
2023/02/15 04:40:11;;;;;;;20.90;13.17;;;-3.20;99.90;-3.70;101843.00;;;;4907470;28;88472;-67
2023/02/15 04:42:37;;;;;;;29.03;13.30;;;-3.30;99.90;-3.70;101840.00;;;;4909446;28;88735;-67
2023/02/15 04:45:03;;;;;;;24.57;14.63;;;-3.30;99.90;-3.70;101834.00;;;;4907550;28;109246;-68
2023/02/15 04:47:29;;;;;;;26.60;14.37;;;-3.10;99.90;-3.70;101829.00;;;;4907537;28;88034;-68
2023/02/15 04:49:54;;;;;;;19.97;11.50;;;-2.20;99.90;-3.70;101815.00;;;;4907204;28;109318;-67
2023/02/15 04:52:20;;;;;;;32.17;14.57;;;-3.20;99.90;-3.70;101824.00;;;;4909946;28;118680;-67
2023/02/15 04:54:46;;;;;;;22.17;13.60;;;-3.20;99.90;-3.70;101819.00;;;;4910741;28;89886;-67
2023/02/15 04:57:12;;;;;;;23.57;13.93;;;-3.10;99.90;-3.70;101828.00;;;;4909619;28;111203;-67
2023/02/15 04:59:38;;;;;;;19.73;11.70;;;-3.20;99.90;-3.70;101822.00;;;;4922242;28;108275;-67
2023/02/15 05:02:04;;;;;;;21.33;11.60;;;-3.20;99.90;-3.70;101823.00;;;;4911350;28;87971;-67
2023/02/15 05:04:30;;;;;;;25.60;13.03;;;-3.30;99.90;-3.70;101820.00;;;;4908963;28;117498;-67
2023/02/15 05:06:55;;;;;;;21.17;12.20;;;-2.40;99.90;-3.70;101809.00;;;;4910216;28;97087;-67
2023/02/15 05:09:21;;;;;;;23.13;12.00;;;-3.20;99.90;-3.70;101819.00;;;;4908701;28;107785;-67
2023/02/15 05:11:47;;;;;;;17.80;11.23;;;-3.20;99.90;-3.70;101817.00;;;;4908263;28;113483;-68
2023/02/15 05:14:12;;;;;;;19.80;12.53;;;-3.20;99.90;-3.70;101806.00;;;;4908939;28;115598;-67
2023/02/15 05:16:38;;;;;;;18.70;10.17;;;-3.20;99.90;-3.70;101807.00;;;;4912329;28;92095;-67
2023/02/15 05:19:05;;;;;;;18.10;11.90;;;-3.10;99.90;-3.70;101814.00;;;;4913637;28;87765;-67
2023/02/15 05:21:32;;;;;;;19.00;11.03;;;-3.20;99.90;-3.70;101805.00;;;;4914247;28;90631;-67
2023/02/15 05:23:58;;;;;;;18.33;10.53;;;-3.10;99.90;-3.70;101802.00;;;;4914382;28;88019;-67
2023/02/15 05:29:10;;;;;;;18.77;10.80;;;-3.10;99.90;-3.60;101813.00;;;;4924384;28;87907;-67
2023/02/15 05:31:36;;;;;;;18.57;11.10;;;-3.10;99.90;-3.50;101803.00;;;;4897198;28;89777;-67
2023/02/15 05:34:02;;;;;;;18.70;10.70;;;-3.10;99.90;-3.50;101818.00;;;;4912245;28;105495;-67
2023/02/15 05:36:28;;;;;;;15.60;8.77;;;-3.00;99.90;-3.50;101814.00;;;;4913833;28;112508;-67
2023/02/15 05:38:55;;;;;;;22.23;10.57;;;-2.90;99.90;-3.50;101806.00;;;;4916335;28;87943;-67
2023/02/15 05:41:20;;;;;;;18.33;12.20;;;-2.90;99.90;-3.50;101824.00;;;;4910377;28;95570;-66
2023/02/15 05:43:46;;;;;;;19.30;11.50;;;-3.00;99.90;-3.60;101807.00;;;;4915693;28;89528;-66
2023/02/15 05:46:12;;;;;;;27.53;12.53;;;-2.90;99.90;-3.60;101806.00;;;;4913887;28;111968;-68
2023/02/15 05:48:38;;;;;;;21.30;11.30;;;-3.10;99.90;-3.70;101814.00;;;;4910248;28;108829;-66
2023/02/15 05:51:08;;;;;;;19.50;12.37;;;-3.10;99.90;-3.70;101813.00;;;;4912679;28;117695;-66
2023/02/15 05:53:37;;;;;;;16.90;11.07;;;-3.10;99.90;-3.70;101813.00;;;;4894882;28;88877;-67
2023/02/15 05:56:04;;;;;;;22.77;10.80;;;-3.20;99.90;-3.70;101818.00;;;;4925409;28;88043;-67
2023/02/15 05:58:37;;;;;;;19.73;10.90;;;-3.10;99.90;-3.70;101814.00;;;;4910439;28;102866;-67
2023/02/15 06:01:12;;;;;;;15.57;10.63;;;-3.20;99.90;-3.60;101811.00;;;;4909452;28;88971;-67
2023/02/15 06:03:38;;;;;;;17.93;11.07;;;-3.00;99.90;-3.60;101801.00;;;;4916458;28;87934;-67
2023/02/15 06:06:04;;;;;;;22.53;12.27;;;-3.10;99.90;-3.60;101810.00;;;;4911459;28;113273;-67
2023/02/15 06:08:31;;;;;;;22.30;11.80;;;-3.10;99.90;-3.60;101815.00;;;;4912243;28;90203;-68
2023/02/15 06:10:57;;;;;;;19.17;11.30;;;-3.10;99.90;-3.60;101810.00;;;;4926179;28;88127;-67
2023/02/15 06:13:22;;;;;;;19.43;11.30;;;-2.70;99.90;-3.70;101810.00;;;;4911698;28;117609;-67
2023/02/15 06:15:48;;;;;;;19.63;11.60;;;-3.10;99.90;-3.70;101807.00;;;;4908883;28;113723;-67
2023/02/15 06:18:14;;;;;;;24.20;12.67;;;-3.10;99.90;-3.70;101807.00;;;;4912526;28;107640;-67
2023/02/15 06:20:39;;;;;;;20.17;11.73;;;-4.10;99.90;-3.80;101807.00;;;;4908946;28;118237;-67
2023/02/15 06:23:05;;;;;;;17.43;10.80;;;-3.20;99.90;-3.80;101813.00;;;;4912325;28;117653;-67
2023/02/15 06:25:31;;;;;;;15.90;11.00;;;-3.30;99.90;-3.80;101809.00;;;;4925941;28;110662;-67
2023/02/15 06:27:56;;;;;;;20.20;11.83;;;-3.40;99.90;-3.80;101814.00;;;;4910211;28;96195;-67
2023/02/15 06:30:22;;;;;;;19.20;11.97;;;-3.00;99.90;-3.80;101812.00;;;;4910749;28;118313;-67
2023/02/15 06:32:48;;;;;;;19.20;10.63;;;-3.40;99.90;-3.80;101823.00;;;;4911514;28;116695;-67
2023/02/15 06:35:13;;;;;;;23.20;12.90;;;-3.30;99.90;-3.80;101806.00;;;;4911753;28;95403;-66
2023/02/15 06:37:39;;;;;;;20.57;12.03;;;-3.30;99.90;-3.80;101815.00;;;;4912411;28;109353;-66
2023/02/15 06:40:06;;;;;;;21.33;11.83;;;-3.10;99.90;-3.70;101810.00;;;;4911028;28;117104;-66
2023/02/15 06:42:32;;;;;;;26.97;12.93;;;-3.20;99.90;-3.70;101813.00;;;;4909273;28;89635;-66
2023/02/15 06:44:58;;;;;;;28.27;14.70;;;-3.20;99.90;-3.70;101813.00;;;;4911016;28;94934;-66
2023/02/15 06:47:24;;;;;;;24.63;13.73;;;-3.10;99.90;-3.70;101813.00;;;;4911368;28;87315;-66
2023/02/15 06:49:50;;;;;;;24.43;14.13;;;-2.70;99.90;-3.60;101810.00;;;;4910837;28;117299;-66
2023/02/15 06:52:15;;;;;;;26.20;13.93;;;-3.10;99.90;-3.60;101806.00;;;;4908891;28;117233;-66
2023/02/15 06:54:41;;;;;;;22.57;14.33;;;-3.10;99.90;-3.60;101813.00;;;;4909325;28;89001;-66
2023/02/15 06:57:07;;;;;;;28.97;17.07;;;-3.10;99.90;-3.50;101811.00;;;;4912267;28;109011;-66
2023/02/15 06:59:32;;;;;;;30.03;15.60;;;-3.00;99.90;-3.50;101810.00;;;;4909270;28;88426;-66
2023/02/15 07:01:58;;;;;;;25.17;15.10;;;-3.10;99.90;-3.40;101807.00;;;;4911505;28;88864;-67
2023/02/15 07:04:24;;;;;;;32.10;17.70;;;-2.90;99.90;-3.40;101800.00;;;;4910472;28;112162;-66
2023/02/15 07:06:50;;;;;;;26.77;15.13;;;-2.90;99.90;-3.20;101810.00;;;;4911209;28;87877;-66
2023/02/15 07:09:16;;;;;;;29.83;15.23;;;-1.80;99.90;-3.00;101799.00;;;;4911130;28;88942;-66
2023/02/15 07:14:26;;;;;;;32.60;15.13;;;-2.40;99.90;-2.40;101789.00;;;;4909408;28;87918;-67
2023/02/15 07:16:51;;;;;;;25.90;16.00;;;-2.10;99.90;-2.10;101792.00;;;;4912219;28;88113;-68
2023/02/15 07:19:17;;;;;;;27.00;16.67;;;-1.80;99.90;-1.90;101787.00;;;;4907593;28;117988;-66
2023/02/15 07:21:45;;;;;;;23.33;15.57;;;-1.60;99.90;-1.60;101770.00;;;;4907403;28;106768;-66
2023/02/15 07:24:10;;;;;;;26.20;14.70;;;-1.30;99.90;-1.40;101779.00;;;;4913115;28;88139;-66
2023/02/15 07:26:36;;;;;;;27.53;15.93;;;-0.90;99.90;-1.10;101785.00;;;;4910037;28;108840;-66
2023/02/15 07:29:02;;;;;;;16.00;11.50;;;-0.80;99.90;-0.80;101792.00;;;;4909320;28;117220;-66
2023/02/15 07:31:28;;;;;;;16.30;11.73;;;-0.50;99.90;-0.60;101786.00;;;;4909679;28;92761;-67
2023/02/15 07:33:53;;;;;;;16.13;12.33;;;-0.40;99.90;-0.30;101787.00;;;;4911423;28;103625;-67
2023/02/15 07:36:19;;;;;;;23.63;12.83;;;0.00;99.90;-0.10;101787.00;;;;4907843;28;108505;-67
2023/02/15 07:38:45;;;;;;;17.90;10.63;;;0.10;99.90;0.10;101780.00;;;;4909016;28;117241;-67
2023/02/15 07:41:14;;;;;;;20.13;12.07;;;0.50;99.90;0.30;101780.00;;;;4913169;28;88267;-68
2023/02/15 07:43:43;;;;;;;17.10;12.20;;;0.70;99.90;0.60;101789.00;;;;4910754;28;100237;-68
2023/02/15 07:46:12;;;;;;;17.00;11.07;;;0.90;99.90;0.90;101773.00;;;;4911479;28;88159;-67
2023/02/15 07:48:39;;;;;;;19.17;10.73;;;1.20;99.90;1.10;101775.00;;;;4909769;28;89680;-70
2023/02/15 07:51:07;;;;;;;22.90;12.60;;;1.40;99.90;1.40;101779.00;;;;4912178;28;88152;-67
2023/02/15 07:53:33;;;;;;;19.33;10.27;;;1.70;99.90;1.70;101784.00;;;;4910990;28;101458;-67
2023/02/15 07:56:01;;;;;;;19.77;11.67;;;1.90;99.90;2.00;101787.00;;;;4912917;28;87983;-68
2023/02/15 07:58:50;;;;;;;16.43;11.30;;;2.20;99.90;2.20;101780.00;;;;4909973;28;88285;-67
2023/02/15 08:01:14;;;;;;;26.53;12.13;;;2.40;99.90;2.50;101780.00;;;;4910088;28;87230;-68
2023/02/15 08:03:39;;;;;;;18.80;11.57;;;2.60;99.90;2.70;101778.00;;;;4908573;28;87839;-68
2023/02/15 08:06:05;;;;;;;17.97;11.93;;;3.00;99.90;2.90;101773.00;;;;4924803;28;88108;-68
2023/02/15 08:08:34;;;;;;;18.77;10.33;;;3.20;99.90;3.10;101766.00;;;;4911146;28;89915;-68
2023/02/15 08:11:33;;;;;;;16.27;10.30;;;3.40;99.90;3.30;101769.00;;;;4910824;28;89467;-68
2023/02/15 08:14:10;;;;;;;19.00;12.43;;;3.60;99.90;3.60;101764.00;;;;4909595;28;87977;-67
2023/02/15 08:16:47;;;;;;;14.77;10.43;;;3.80;99.90;3.80;101759.00;;;;4925333;28;87864;-67
2023/02/15 08:19:26;;;;;;;17.03;11.00;;;4.10;99.90;4.00;101766.00;;;;4910460;28;89210;-68
2023/02/15 08:21:57;;;;;;;19.87;12.27;;;4.30;99.90;4.30;101760.00;;;;4909587;28;87953;-67
2023/02/15 08:24:25;;;;;;;21.63;13.30;;;4.50;99.90;4.60;101763.00;;;;4906202;28;96843;-66
2023/02/15 08:26:52;;;;;;;21.63;10.97;;;4.80;99.90;4.90;101756.00;;;;4910085;28;87078;-67
2023/02/15 08:29:22;;;;;;;18.87;11.93;;;5.40;99.90;5.20;101762.00;;;;4923681;28;88096;-65
2023/02/15 08:31:49;;;;;;;23.63;13.80;;;5.30;99.90;5.50;101756.00;;;;4910026;28;88690;-66
2023/02/15 08:34:18;;;;;;;21.50;11.80;;;6.50;99.90;5.70;101759.00;;;;4909078;28;88942;-66
2023/02/15 08:36:47;;;;;;;23.80;11.80;;;5.80;99.90;6.00;101766.00;;;;4910011;28;87873;-65
2023/02/15 08:39:15;;;;;;;23.63;10.33;;;6.90;99.90;6.30;101754.00;;;;4910301;28;88183;-65
2023/02/15 08:41:47;;;;;;;19.00;11.03;;;6.40;99.90;6.70;101766.00;;;;4909159;28;88130;-66
2023/02/15 08:44:16;;;;;;;20.00;11.07;;;6.80;99.90;7.00;101759.00;;;;4911113;28;88110;-65
2023/02/15 08:46:43;;;;;;;19.50;11.37;;;7.60;99.90;7.30;101746.00;;;;4912134;28;87774;-65
2023/02/15 08:49:19;;;;;;;19.53;10.27;;;7.40;99.90;7.60;101752.00;;;;4914440;28;88450;-65
2023/02/15 08:51:45;;;;;;;18.90;12.13;;;7.60;99.90;7.80;101755.00;;;;4914231;28;88739;-65
2023/02/15 08:54:16;;;;;;;16.57;10.33;;;7.90;99.90;8.10;101757.00;;;;4916380;28;100527;-66
2023/02/15 08:56:43;;;;;;;19.33;10.50;;;7.60;99.90;8.40;101745.00;;;;4913701;28;87905;-65
2023/02/15 08:59:27;;;;;;;17.37;10.57;;;8.40;99.90;8.80;101749.00;;;;4915047;28;91253;-66
2023/02/15 09:01:54;;;;;;;19.67;9.57;;;8.80;99.90;9.10;101751.00;;;;4915418;28;88748;-66
2023/02/15 09:04:20;;;;;;;17.43;8.67;;;9.10;99.90;9.20;101743.00;;;;4915468;28;88091;-66
2023/02/15 09:06:48;;;;;;;19.17;10.20;;;9.30;99.90;9.30;101739.00;;;;4916750;28;88094;-66
2023/02/15 09:09:16;;;;;;;15.53;8.63;;;9.40;99.90;9.50;101741.00;;;;4913923;28;88208;-66
2023/02/15 09:11:45;;;;;;;16.40;9.00;;;9.60;99.90;9.60;101730.00;;;;4917623;28;88020;-67
2023/02/15 09:14:20;;;;;;;17.80;9.30;;;9.60;99.90;9.60;101742.00;;;;4915651;28;87934;-66
2023/02/15 09:16:48;;;;;;;12.97;9.23;;;9.70;99.90;9.70;101742.00;;;;4914309;28;87410;-67
2023/02/15 09:19:18;;;;;;;21.60;10.63;;;9.70;99.90;9.80;101745.00;;;;4928037;28;87994;-67
2023/02/15 09:21:44;;;;;;;16.77;9.40;;;9.80;99.90;9.80;101734.00;;;;4915369;28;91268;-66
2023/02/15 09:24:13;;;;;;;15.47;8.47;;;9.90;99.90;10.00;101729.00;;;;4913732;28;111947;-67
2023/02/15 09:26:42;;;;;;;13.67;8.13;;;10.00;99.90;10.10;101731.00;;;;4912730;28;87827;-67
2023/02/15 09:29:10;;;;;;;19.70;10.47;;;10.20;99.90;10.40;101734.00;;;;4914657;28;108756;-67
2023/02/15 09:31:44;;;;;;;17.43;8.80;;;10.30;99.90;10.60;101731.00;;;;4912437;28;106769;-67
2023/02/15 09:34:16;;;;;;;13.97;8.17;;;10.60;99.90;10.80;101739.00;;;;4914542;28;87999;-67
2023/02/15 09:36:42;;;;;;;17.43;8.77;;;10.70;99.90;11.00;101736.00;;;;4914861;28;87697;-67
2023/02/15 09:39:25;;;;;;;12.73;7.30;;;11.00;99.90;11.30;101734.00;;;;4912523;28;88535;-67
2023/02/15 09:42:28;;;;;;;13.03;7.57;;;11.20;99.90;11.40;101720.00;;;;4915073;28;87268;-68
2023/02/15 09:45:06;;;;;;;11.00;7.33;;;11.40;99.90;11.70;101726.00;;;;4913052;28;87614;-67
2023/02/15 09:48:14;;;;;;;13.07;7.43;;;11.60;99.90;11.60;101723.00;;;;4912727;28;87849;-69
2023/02/15 09:51:23;;;;;;;12.87;7.73;;;11.70;99.90;11.70;101720.00;;;;4913582;28;111760;-69
2023/02/15 09:53:55;;;;;;;12.57;6.43;;;11.70;99.90;11.90;101723.00;;;;4911676;28;88750;-68
2023/02/15 09:57:00;;;;;;;9.83;7.17;;;11.90;99.90;12.00;101724.00;;;;4945324;28;88129;-69
2023/02/15 09:59:56;;;;;;;15.63;7.23;;;12.00;99.10;12.20;101721.00;;;;4914290;28;87848;-69
2023/02/15 10:02:59;;;;;;;13.20;6.23;;;12.20;98.70;12.40;101738.00;;;;4923259;28;109187;-68
2023/02/15 10:05:58;;;;;;;8.40;6.47;;;12.30;98.00;12.60;101731.00;;;;4914436;28;87786;-69
2023/02/15 10:08:51;;;;;;;9.13;5.73;;;12.50;97.80;12.90;101731.00;;;;4912343;28;93764;-68
2023/02/15 10:11:40;;;;;;;10.97;5.70;;;12.70;97.90;13.30;101728.00;;;;4914346;28;87053;-69
2023/02/15 10:14:39;;;;;;;10.47;5.30;;;13.10;97.30;13.50;101723.00;;;;4913565;28;87971;-70
2023/02/15 10:17:48;;;;;;;8.43;4.70;;;13.40;94.20;13.50;101716.00;;;;4912754;28;87933;-70
2023/02/15 10:20:26;;;;;;;8.97;5.13;;;13.40;92.30;13.50;101714.00;;;;4914463;28;88661;-67
2023/02/15 10:23:25;;;;;;;13.57;4.97;;;13.50;90.70;13.40;101709.00;;;;4911618;28;88160;-70
2023/02/15 10:26:13;;;;;;;6.43;4.57;;;13.50;89.00;13.40;101714.00;;;;4942291;28;103445;-67
2023/02/15 10:28:52;;;;;;;9.60;5.90;;;13.40;87.40;13.50;101701.00;;;;4924723;28;87931;-70
2023/02/15 10:31:22;;;;;;;9.60;4.97;;;13.50;86.30;13.60;101707.00;;;;4927362;28;88142;-69
2023/02/15 10:34:25;;;;;;;11.40;5.90;;;13.60;86.10;13.90;101705.00;;;;4914516;28;91790;-69
2023/02/15 10:37:33;;;;;;;10.20;5.13;;;13.70;85.80;14.00;101703.00;;;;4926633;28;109240;-67
2023/02/15 10:40:08;;;;;;;10.93;4.93;;;13.80;82.80;14.20;101700.00;;;;4928042;28;87295;-68
2023/02/15 10:43:14;;;;;;;9.20;5.03;;;14.10;81.40;14.50;101698.00;;;;4926738;28;101469;-68
2023/02/15 10:46:02;;;;;;;8.13;4.53;;;14.30;81.40;14.50;101695.00;;;;4926243;28;88369;-68
2023/02/15 10:48:53;;;;;;;7.77;4.43;;;14.40;79.20;14.50;101693.00;;;;4912676;28;88884;-69
2023/02/15 10:51:58;;;;;;;8.45;4.63;;;14.40;76.10;14.70;101693.00;;;;4913505;28;88101;-69
2023/02/15 10:55:03;;;;;;;11.35;5.75;;;14.60;77.20;14.90;101688.00;;;;4909682;28;87898;-68
2023/02/15 10:58:10;;;;;;;8.25;5.15;;;14.70;73.30;15.10;101688.00;;;;4912728;28;87809;-68
2023/02/15 11:00:50;;;;;;;6.40;4.45;;;14.90;72.00;15.10;101682.00;;;;4927068;28;88326;-72
2023/02/15 11:03:31;;;;;;;6.93;5.15;;;14.90;69.90;15.10;101683.00;;;;4926165;28;109940;-69
2023/02/15 11:06:04;;;;;;;8.02;5.53;;;15.00;69.80;15.20;101691.00;;;;4909794;28;99606;-68
2023/02/15 11:08:34;;;;;;;6.70;4.43;;;15.00;69.00;15.20;101685.00;;;;4910419;28;87004;-69
2023/02/15 11:11:06;;;;;;;7.25;4.47;;;15.00;67.50;15.20;101675.00;;;;4940001;28;112167;-68
2023/02/15 11:13:43;;;;;;;8.45;5.18;;;15.10;67.50;15.20;101676.00;;;;4911620;28;88112;-67
2023/02/15 11:16:16;;;;;;;12.63;6.28;;;15.10;67.50;15.40;101667.00;;;;4926220;28;88900;-69
2023/02/15 11:18:50;;;;;;;7.13;5.25;;;15.20;67.60;15.60;101670.00;;;;4912097;28;87918;-67
2023/02/15 11:21:29;;;;;;;6.88;4.65;;;15.40;66.70;15.70;101663.00;;;;4923901;28;111179;-70
2023/02/15 11:23:55;;;;;;;9.35;5.43;;;15.50;65.00;15.70;101664.00;;;;4910522;28;88837;-68
2023/02/15 11:26:48;;;;;;;8.27;4.60;;;15.50;63.90;15.80;101661.00;;;;4910586;28;110020;-70